KDNL

Daniel Field Airport

Augusta, Georgia, USA
KDNL 240234Z 2403/2424 VRB03KT P6SM SCT250 FM241000 02005KT P6SM SKC WS015/04025KT FM241400 04009G15KT P6SM SKC FM242000 05006KT P6SM SKC
Issued Valid From Valid To
Oct-24 @ 02:34 UTC
(2 hours ago)
Oct-24 @ 03:00 UTC
(2 hours ago)
Oct-25 @ 00:00 UTC
(in 19 hours)
Oct-24 @ 03:00 to Oct-24 @ 10:00
KDNL 240234Z 2403/2424 VRB03KT P6SM SCT250
Wind Visibility Clouds
Variable at 3 knots Greater than 6 miles
  • Scattered at 25,000' AGL
From Oct-24 @ 10:00 to Oct-24 @ 14:00
FM241000 02005KT P6SM SKC WS015/04025KT
Wind Visibility Clouds
20° at 5 knots
 Wind shear 1,500' AGL from 40° at 25 knots
Greater than 6 miles
  • Clear skies
From Oct-24 @ 14:00 to Oct-24 @ 20:00
FM241400 04009G15KT P6SM SKC
Wind Visibility Clouds
40° at 9 knots
 Gusting to 15 knots
Greater than 6 miles
  • Clear skies
From Oct-24 @ 20:00 to Oct-25 @ 00:00
FM242000 05006KT P6SM SKC
Wind Visibility Clouds
50° at 6 knots Greater than 6 miles
  • Clear skies
KDNL 240234Z 2403/2424 VRB03KT P6SM SCT250 FM241000 02005KT P6SM SKC WS015/04025KT FM241400 04009G15KT P6SM SKC FM242000 05006KT P6SM SKC
Issued Oct-24 @ 02:34 UTC
(2 hours ago)
Valid From Oct-24 @ 03:00 UTC
(2 hours ago)
Valid To Oct-25 @ 00:00 UTC
(in 19 hours)
Oct-24 @ 03:00 - Oct-24 @ 10:00
Wind Visibility
Variable at 3 knots Greater than 6 miles
Clouds
  • Scattered at 25,000' AGL
From Oct-24 @ 10:00 - Oct-24 @ 14:00
Wind Visibility
20° at 5 knots Greater than 6 miles
Clouds
  • Clear skies
From Oct-24 @ 14:00 - Oct-24 @ 20:00
Wind Visibility
40° at 9 knots
 Gusting to 15 knots
Greater than 6 miles
Clouds
  • Clear skies
From Oct-24 @ 20:00 - Oct-25 @ 00:00
Wind Visibility
50° at 6 knots Greater than 6 miles
Clouds
  • Clear skies